createdAt,value
2022-11-08T00:03:10.199Z,2.38
2022-11-08T00:06:51.032Z,2.05
2022-11-08T00:10:31.931Z,2.33
2022-11-08T00:14:00.423Z,1.92
2022-11-08T00:17:24.679Z,2.40
2022-11-08T00:20:46.875Z,2.08
2022-11-08T00:24:09.238Z,3.08
2022-11-08T00:27:31.686Z,3.35
2022-11-08T00:30:53.908Z,1.92
2022-11-08T00:34:16.122Z,2.53
2022-11-08T00:37:38.415Z,2.95
2022-11-08T00:41:00.703Z,1.42
2022-11-08T00:44:22.942Z,2.90
2022-11-08T00:47:45.195Z,1.70
2022-11-08T00:51:10.269Z,2.35
2022-11-08T00:54:32.560Z,4.53
2022-11-08T00:57:59.613Z,2.65
2022-11-08T01:01:22.519Z,4.60
2022-11-08T01:04:44.782Z,3.85
2022-11-08T01:08:07.023Z,2.47
2022-11-08T01:11:29.263Z,1.65
2022-11-08T01:14:51.495Z,3.25
2022-11-08T01:18:16.817Z,2.92
2022-11-08T01:21:39.287Z,3.08
2022-11-08T01:25:01.489Z,3.53
2022-11-08T01:28:23.721Z,1.65
2022-11-08T01:31:46.000Z,5.82
2022-11-08T01:35:08.695Z,2.92
2022-11-08T01:38:30.903Z,1.52
2022-11-08T01:41:53.119Z,1.85
2022-11-08T01:45:15.347Z,1.52
2022-11-08T01:48:42.148Z,5.45
2022-11-08T01:52:13.652Z,2.35
2022-11-08T01:55:36.873Z,2.95
2022-11-08T01:59:02.694Z,3.25
2022-11-08T02:02:25.223Z,2.78
2022-11-08T02:05:48.087Z,3.40
2022-11-08T02:09:14.121Z,1.80
2022-11-08T02:12:36.429Z,2.58
2022-11-08T02:15:58.801Z,1.92
2022-11-08T02:19:38.518Z,2.47
2022-11-08T02:23:21.906Z,1.90
2022-11-08T02:26:45.873Z,1.50
2022-11-08T02:30:08.714Z,1.00
2022-11-08T02:33:30.920Z,2.58
2022-11-08T02:36:53.743Z,2.15
2022-11-08T02:40:16.036Z,1.40
2022-11-08T02:43:38.521Z,1.00
2022-11-08T02:47:00.775Z,2.10
2022-11-08T02:50:22.966Z,1.58
2022-11-08T02:53:45.164Z,1.48
2022-11-08T02:57:07.610Z,0.50
2022-11-08T03:00:30.369Z,1.58
2022-11-08T03:03:52.637Z,1.77
2022-11-08T03:07:14.916Z,3.00
2022-11-08T03:10:37.139Z,0.60
2022-11-08T03:13:59.471Z,1.33
2022-11-08T03:17:21.684Z,1.20
2022-11-08T03:20:44.502Z,1.50
2022-11-08T03:24:07.139Z,1.63
2022-11-08T03:27:29.465Z,0.75
2022-11-08T03:30:53.156Z,2.25
2022-11-08T03:34:15.351Z,0.57
2022-11-08T03:37:37.570Z,1.15
2022-11-08T03:40:59.803Z,0.57
2022-11-08T03:44:22.042Z,1.65
2022-11-08T03:47:47.026Z,0.60
2022-11-08T03:51:13.446Z,0.82
2022-11-08T03:54:35.669Z,2.70
2022-11-08T03:57:58.011Z,0.57
2022-11-08T04:01:20.401Z,1.27
2022-11-08T04:04:42.636Z,0.40
2022-11-08T04:08:05.403Z,4.53
2022-11-08T04:11:46.353Z,0.55
2022-11-08T04:15:17.655Z,0.88
2022-11-08T04:18:58.747Z,0.65
2022-11-08T04:22:21.098Z,1.15
2022-11-08T04:25:44.493Z,1.13
2022-11-08T04:29:08.104Z,1.17
2022-11-08T04:32:30.292Z,0.75
2022-11-08T04:35:53.136Z,0.77
2022-11-08T04:39:15.341Z,0.32
2022-11-08T04:42:37.565Z,1.20
2022-11-08T04:46:11.523Z,1.02
2022-11-08T04:49:33.709Z,1.30
2022-11-08T04:52:56.156Z,0.73
2022-11-08T04:56:20.580Z,1.00
2022-11-08T04:59:42.820Z,0.57
2022-11-08T05:03:05.041Z,0.45
2022-11-08T05:06:29.866Z,0.82
2022-11-08T05:09:52.067Z,1.67
2022-11-08T05:13:14.276Z,1.05
2022-11-08T05:16:36.555Z,0.80
2022-11-08T05:20:17.530Z,1.33
2022-11-08T05:23:39.854Z,1.55
2022-11-08T05:27:02.064Z,0.40
2022-11-08T05:30:24.291Z,0.32
2022-11-08T05:33:46.896Z,1.33
2022-11-08T05:37:09.105Z,0.50
2022-11-08T05:40:33.609Z,0.60
2022-11-08T05:43:56.240Z,2.75
2022-11-08T05:47:18.540Z,0.60
2022-11-08T05:50:41.193Z,1.08
2022-11-08T05:54:08.063Z,1.13
2022-11-08T05:57:31.031Z,1.00
2022-11-08T06:01:03.817Z,1.58
2022-11-08T06:04:26.072Z,2.78
2022-11-08T06:07:48.411Z,3.20
2022-11-08T06:11:16.327Z,1.08
2022-11-08T06:14:38.519Z,2.33
2022-11-08T06:18:05.047Z,0.68
2022-11-08T06:21:27.728Z,1.30
2022-11-08T06:24:49.994Z,1.02
2022-11-08T06:28:13.200Z,1.58
2022-11-08T06:31:39.340Z,3.92
2022-11-08T06:35:05.414Z,2.25
2022-11-08T06:38:27.715Z,2.58
2022-11-08T06:41:50.029Z,5.60
2022-11-08T06:45:12.235Z,6.13
2022-11-08T06:48:36.246Z,5.80
2022-11-08T06:51:58.793Z,2.30
2022-11-08T06:55:21.010Z,7.18
2022-11-08T06:58:43.279Z,5.55
2022-11-08T07:02:05.718Z,2.92
2022-11-08T07:05:29.885Z,6.53
2022-11-08T07:08:52.286Z,3.60
2022-11-08T07:12:14.489Z,3.90
2022-11-08T07:15:38.136Z,4.88
2022-11-08T07:19:00.356Z,4.40
2022-11-08T07:22:22.576Z,4.28
2022-11-08T07:25:44.946Z,13.68
2022-11-08T07:29:07.161Z,4.97
2022-11-08T07:32:29.649Z,6.47
2022-11-08T07:35:51.891Z,5.45
2022-11-08T07:39:14.173Z,4.72
2022-11-08T07:43:04.847Z,4.22
2022-11-08T07:46:19.793Z,4.55
2022-11-08T07:49:42.034Z,2.92
2022-11-08T07:53:04.315Z,7.28
2022-11-08T07:56:26.507Z,3.78
2022-11-08T07:59:49.880Z,3.95
2022-11-08T08:03:14.962Z,5.80
2022-11-08T08:09:59.455Z,2.28
2022-11-08T08:13:21.778Z,7.95
2022-11-08T08:16:44.001Z,5.85
2022-11-08T08:20:07.679Z,1.80
2022-11-08T08:23:29.853Z,7.72
2022-11-08T08:26:52.193Z,5.88
2022-11-08T08:30:15.028Z,7.07
2022-11-08T08:33:38.008Z,3.45
2022-11-08T08:37:00.486Z,8.27
2022-11-08T08:40:22.680Z,6.05
2022-11-08T08:43:44.885Z,6.05
2022-11-08T08:47:07.205Z,9.75
2022-11-08T08:50:30.771Z,9.93
2022-11-08T08:53:52.999Z,3.33
2022-11-08T08:57:15.168Z,3.00
2022-11-08T09:04:20.096Z,5.10
2022-11-08T09:07:42.488Z,6.22
2022-11-08T09:11:04.996Z,8.10
2022-11-08T09:14:27.364Z,6.35
2022-11-08T09:17:49.676Z,5.05
2022-11-08T09:21:11.933Z,3.92
2022-11-08T09:24:34.722Z,3.47
2022-11-08T09:27:43.596Z,3.75
2022-11-08T09:31:09.227Z,4.95
2022-11-08T09:34:31.409Z,6.63
2022-11-08T09:37:54.315Z,4.18
2022-11-08T09:41:34.546Z,4.75
2022-11-08T09:45:20.811Z,3.47
2022-11-08T09:48:45.064Z,5.88
2022-11-08T09:52:09.874Z,3.10
2022-11-08T09:55:44.592Z,6.00
2022-11-08T09:59:25.505Z,4.93
2022-11-08T10:02:47.914Z,4.32
2022-11-08T10:06:47.365Z,5.10
2022-11-08T10:10:29.508Z,4.78
2022-11-08T10:13:51.656Z,7.80
2022-11-08T10:17:35.670Z,5.38
2022-11-08T10:21:08.778Z,6.07
2022-11-08T10:25:03.504Z,3.88
2022-11-08T10:28:36.639Z,8.50
2022-11-08T10:32:05.495Z,6.22
2022-11-08T10:35:38.109Z,3.03
2022-11-08T10:39:03.669Z,3.70
2022-11-08T10:42:45.977Z,6.82
2022-11-08T10:46:37.912Z,4.57
2022-11-08T10:50:04.081Z,5.25
2022-11-08T10:53:29.713Z,6.93
2022-11-08T10:56:58.407Z,4.90
2022-11-08T11:00:20.548Z,6.15
2022-11-08T11:03:44.308Z,5.07
2022-11-08T11:07:30.656Z,2.60
2022-11-08T11:10:52.983Z,5.28
2022-11-08T11:14:22.153Z,3.42
2022-11-08T11:17:46.462Z,5.20
2022-11-08T11:21:18.850Z,2.47
2022-11-08T11:24:50.985Z,5.30
2022-11-08T11:28:14.057Z,9.90
2022-11-08T11:31:38.807Z,5.00
2022-11-08T11:35:07.429Z,6.85
2022-11-08T11:38:58.025Z,8.52
2022-11-08T11:42:44.358Z,6.95
2022-11-08T11:46:22.914Z,5.60
2022-11-08T11:49:46.713Z,7.15
2022-11-08T11:53:29.799Z,6.28
2022-11-08T11:57:04.847Z,7.60
2022-11-08T12:00:27.075Z,5.50
2022-11-08T12:03:51.946Z,6.38
2022-11-08T12:07:28.433Z,8.65
2022-11-08T12:11:29.305Z,7.00
2022-11-08T12:14:55.649Z,10.80
2022-11-08T12:18:47.066Z,3.80
2022-11-08T12:22:20.333Z,6.70
2022-11-08T12:26:16.133Z,7.90
2022-11-08T12:30:01.349Z,6.88
2022-11-08T12:33:47.563Z,7.78
2022-11-08T12:37:28.954Z,11.23
2022-11-08T12:41:18.312Z,5.38
2022-11-08T12:45:06.756Z,4.93
2022-11-08T12:48:37.952Z,5.40
2022-11-08T12:52:24.590Z,5.45
2022-11-08T12:55:53.026Z,6.85
2022-11-08T12:59:49.030Z,9.07
2022-11-08T13:03:11.147Z,8.00
2022-11-08T13:06:38.419Z,4.50
2022-11-08T13:10:26.812Z,7.38
2022-11-08T13:13:54.170Z,5.55
2022-11-08T13:17:26.925Z,5.05
2022-11-08T13:20:50.098Z,6.38
2022-11-08T13:24:42.990Z,6.18
2022-11-08T13:27:59.863Z,7.30
2022-11-08T13:31:42.127Z,2.90
2022-11-08T13:35:27.339Z,5.97
2022-11-08T13:39:18.182Z,4.32
2022-11-08T13:42:58.012Z,4.88
2022-11-08T13:46:20.269Z,4.75
2022-11-08T13:49:42.485Z,7.18
2022-11-08T13:53:20.393Z,6.78
2022-11-08T13:56:42.530Z,5.07
2022-11-08T14:00:29.974Z,6.85
2022-11-08T14:03:53.132Z,5.78
2022-11-08T14:07:43.095Z,7.05
2022-11-08T14:11:31.451Z,5.57
2022-11-08T14:15:18.445Z,6.40
2022-11-08T14:18:40.635Z,7.10
2022-11-08T14:22:03.376Z,5.45
2022-11-08T14:25:34.249Z,7.35
2022-11-08T14:29:00.127Z,6.57
2022-11-08T14:32:22.259Z,5.28
2022-11-08T14:36:02.460Z,5.50
2022-11-08T14:39:33.383Z,6.93
2022-11-08T14:42:56.339Z,14.65
2022-11-08T14:46:39.929Z,7.05
2022-11-08T14:50:02.080Z,8.38
2022-11-08T14:53:26.994Z,4.97
2022-11-08T14:56:50.385Z,4.32
2022-11-08T15:00:26.700Z,5.78
2022-11-08T15:03:57.897Z,6.15
2022-11-08T15:07:21.958Z,6.00
2022-11-08T15:11:02.447Z,4.50
2022-11-08T15:14:27.623Z,9.00
2022-11-08T15:21:32.589Z,4.78
2022-11-08T15:25:14.105Z,9.25
2022-11-08T15:28:36.410Z,4.78
2022-11-08T15:32:01.722Z,5.03
2022-11-08T15:35:28.842Z,6.60
2022-11-08T15:38:51.120Z,6.63
2022-11-08T15:42:15.009Z,7.22
2022-11-08T15:45:37.228Z,8.40
2022-11-08T15:49:00.255Z,6.95
2022-11-08T15:52:22.400Z,6.47
2022-11-08T15:55:54.892Z,3.60
2022-11-08T15:59:21.570Z,4.90
2022-11-08T16:02:45.084Z,4.57
2022-11-08T16:06:09.573Z,7.03
2022-11-08T16:09:31.756Z,5.93
2022-11-08T16:12:53.937Z,6.32
2022-11-08T16:16:17.938Z,8.98
2022-11-08T16:19:40.084Z,4.80
2022-11-08T16:23:04.389Z,5.70
2022-11-08T16:26:26.558Z,5.00
2022-11-08T16:29:48.740Z,6.70
2022-11-08T16:33:19.983Z,4.57
2022-11-08T16:36:45.055Z,4.53
2022-11-08T16:40:22.687Z,3.08
2022-11-08T16:43:45.254Z,3.00
2022-11-08T16:47:16.969Z,3.30
2022-11-08T16:50:40.328Z,9.52
2022-11-08T16:54:03.582Z,5.38
2022-11-08T16:57:34.728Z,5.90
2022-11-08T17:00:57.755Z,4.22
2022-11-08T17:04:19.976Z,3.47
2022-11-08T17:07:42.190Z,5.88
2022-11-08T17:11:04.355Z,3.85
2022-11-08T17:14:26.513Z,6.18
2022-11-08T17:17:50.481Z,3.25
2022-11-08T17:21:42.992Z,7.22
2022-11-08T17:24:56.480Z,4.55
2022-11-08T17:28:18.917Z,3.45
2022-11-08T17:31:41.269Z,4.57
2022-11-08T17:35:05.581Z,7.18
2022-11-08T17:38:27.725Z,5.90
2022-11-08T17:41:49.947Z,5.10
2022-11-08T17:45:12.328Z,4.80
2022-11-08T17:48:34.991Z,4.82
2022-11-08T17:51:57.142Z,8.77
2022-11-08T17:55:19.388Z,17.55
2022-11-08T17:58:41.632Z,58.53
2022-11-08T18:02:03.932Z,66.10
2022-11-08T18:05:26.137Z,67.40
2022-11-08T18:08:48.605Z,147.90
2022-11-08T18:12:10.783Z,156.90
2022-11-08T18:15:32.952Z,121.88
2022-11-08T18:18:55.913Z,119.05
2022-11-08T18:22:18.051Z,113.78
2022-11-08T18:25:40.326Z,98.55
2022-11-08T18:29:03.655Z,98.40
2022-11-08T18:32:25.861Z,111.85
2022-11-08T18:35:48.191Z,127.93
2022-11-08T18:39:14.070Z,101.57
2022-11-08T18:42:40.385Z,109.57
2022-11-08T18:46:08.600Z,109.82
2022-11-08T18:49:30.792Z,94.20
2022-11-08T18:52:52.971Z,95.32
2022-11-08T18:56:16.184Z,89.68
2022-11-08T18:59:38.397Z,91.32
2022-11-08T19:03:01.997Z,84.15
2022-11-08T19:06:24.166Z,90.68
2022-11-08T19:09:47.367Z,72.95
2022-11-08T19:13:09.494Z,71.93
2022-11-08T19:16:31.791Z,71.38
2022-11-08T19:19:53.974Z,72.40
2022-11-08T19:23:16.331Z,60.85
2022-11-08T19:26:38.719Z,72.53
2022-11-08T19:30:01.334Z,75.68
2022-11-08T19:33:25.460Z,60.05
2022-11-08T19:36:52.698Z,62.20
2022-11-08T19:40:17.621Z,53.38
2022-11-08T19:43:41.599Z,68.13
2022-11-08T19:47:03.757Z,54.63
2022-11-08T19:50:26.149Z,46.58
2022-11-08T19:53:48.731Z,46.40
2022-11-08T19:57:11.052Z,46.55
2022-11-08T20:00:33.474Z,43.35
2022-11-08T20:03:57.635Z,39.10
2022-11-08T20:07:19.863Z,41.70
2022-11-08T20:10:42.307Z,48.13
2022-11-08T20:14:05.338Z,38.83
2022-11-08T20:17:27.721Z,38.70
2022-11-08T20:20:49.962Z,36.03
2022-11-08T20:24:13.021Z,32.35
2022-11-08T20:27:35.322Z,36.28
2022-11-08T20:31:05.799Z,33.40
2022-11-08T20:34:29.817Z,28.38
2022-11-08T20:37:55.986Z,25.13
2022-11-08T20:41:18.698Z,30.27
2022-11-08T20:44:41.264Z,30.10
2022-11-08T20:48:03.653Z,27.88
2022-11-08T20:51:26.067Z,20.42
2022-11-08T20:54:49.653Z,23.98
2022-11-08T20:58:11.811Z,22.30
2022-11-08T21:01:35.838Z,25.35
2022-11-08T21:04:58.142Z,20.92
2022-11-08T21:12:03.448Z,18.52
2022-11-08T21:15:27.358Z,17.35
2022-11-08T21:18:49.559Z,21.88
2022-11-08T21:22:17.775Z,18.35
2022-11-08T21:25:39.944Z,15.10
2022-11-08T21:29:03.160Z,13.32
2022-11-08T21:32:25.330Z,19.83
2022-11-08T21:35:54.672Z,19.92
2022-11-08T21:39:16.864Z,13.25
2022-11-08T21:42:41.695Z,18.40
2022-11-08T21:46:20.693Z,12.82
2022-11-08T21:49:42.860Z,14.00
2022-11-08T21:53:06.435Z,14.63
2022-11-08T21:56:30.551Z,12.40
2022-11-08T21:59:52.751Z,16.55
2022-11-08T22:03:14.898Z,13.27
2022-11-08T22:06:37.206Z,12.90
2022-11-08T22:09:59.661Z,14.52
2022-11-08T22:13:22.143Z,9.65
2022-11-08T22:16:45.024Z,10.52
2022-11-08T22:20:08.022Z,8.13
2022-11-08T22:23:30.227Z,9.73
2022-11-08T22:26:52.737Z,12.45
2022-11-08T22:30:16.785Z,10.75
2022-11-08T22:33:39.189Z,16.57
2022-11-08T22:37:01.436Z,13.32
2022-11-08T22:40:23.754Z,12.00
2022-11-08T22:43:46.777Z,11.02
2022-11-08T22:47:08.943Z,11.27
2022-11-08T22:50:31.165Z,11.65
2022-11-08T22:53:53.324Z,12.75
2022-11-08T22:57:15.537Z,10.38
2022-11-08T23:00:37.919Z,10.15
2022-11-08T23:04:00.360Z,13.70
2022-11-08T23:07:22.547Z,9.05
2022-11-08T23:11:14.061Z,8.50
2022-11-08T23:14:54.601Z,9.10
2022-11-08T23:18:16.824Z,6.25
2022-11-08T23:21:57.737Z,9.32
2022-11-08T23:25:19.922Z,8.30
2022-11-08T23:29:00.615Z,9.70
2022-11-08T23:32:22.857Z,9.25
2022-11-08T23:36:04.929Z,5.93
2022-11-08T23:39:27.048Z,6.75
2022-11-08T23:43:07.930Z,7.13
2022-11-08T23:46:30.165Z,8.85
2022-11-08T23:49:52.291Z,8.25
2022-11-08T23:53:14.496Z,5.65
2022-11-08T23:56:36.881Z,7.82
2022-11-08T23:59:59.047Z,4.30
